West End, Pennsylvania
Current Conditions -  °F | °C
As of 10:56 PM on Saturday 22 Nov 2014 (Local Time) from KCXY Reporting Station
Clear Clear  
Wind Chill: 34°   Ceiling: Unl
Heat Index: 34°   Visibility: 10mi
Dew Point: 21°   Wind: 3mph
Humidity: 59%   Direction: 310°NW
Pressure: 30.22"   Gusts: NA
Location:  40.273°N, 76.8892°W
Report Text: KCXY 230356Z AUTO 31003KT 10SM CLR 01/M06 A3022 RMK AO2 SLP239 T00111061
Loading
Personal Weather Stations






























Interactive Weather Map New forecast layout! Learn more

10-Day Weather Forecast

Advertisements
Track Severe Weather on mobile